createdAt,value
2022-08-11T00:03:43.717Z,34.24
2022-08-11T00:08:50.492Z,34.71
2022-08-11T00:13:52.276Z,35.01
2022-08-11T00:18:56.423Z,34.90
2022-08-11T00:24:00.997Z,34.49
2022-08-11T00:29:10.166Z,34.81
2022-08-11T00:34:12.790Z,34.88
2022-08-11T00:39:16.015Z,35.84
2022-08-11T00:45:10.273Z,35.65
2022-08-11T00:50:42.977Z,35.71
2022-08-11T00:56:18.382Z,35.69
2022-08-11T01:01:27.410Z,35.52
2022-08-11T01:06:52.886Z,35.37
2022-08-11T01:12:09.623Z,35.64
2022-08-11T01:17:53.265Z,35.78
2022-08-11T01:23:18.170Z,36.04
2022-08-11T01:28:41.306Z,35.99
2022-08-11T01:34:23.302Z,35.98
2022-08-11T01:39:26.310Z,35.94
2022-08-11T01:44:39.858Z,36.31
2022-08-11T01:50:07.893Z,36.32
2022-08-11T01:55:29.494Z,36.57
2022-08-11T02:00:36.049Z,36.75
2022-08-11T02:06:02.365Z,36.73
2022-08-11T02:11:31.102Z,36.68
2022-08-11T02:17:02.401Z,36.83
2022-08-11T02:22:35.529Z,36.76
2022-08-11T02:27:45.335Z,36.92
2022-08-11T02:33:23.157Z,36.84
2022-08-11T02:38:49.510Z,37.04
2022-08-11T02:44:35.589Z,37.08
2022-08-11T02:50:02.779Z,37.33
2022-08-11T02:55:08.998Z,37.20
2022-08-11T03:00:17.565Z,37.42
2022-08-11T03:05:37.627Z,37.20
2022-08-11T03:11:21.226Z,37.30
2022-08-11T03:17:06.167Z,37.38
2022-08-11T03:22:13.302Z,37.60
2022-08-11T03:27:32.918Z,37.59
2022-08-11T03:33:09.775Z,37.67
2022-08-11T03:38:16.386Z,37.70
2022-08-11T03:43:39.146Z,37.92
2022-08-11T03:49:07.153Z,37.89
2022-08-11T03:54:28.492Z,38.13
2022-08-11T03:59:51.670Z,38.00
2022-08-11T04:05:38.481Z,37.77
2022-08-11T04:10:42.477Z,38.08
2022-08-11T04:16:11.429Z,38.25
2022-08-11T04:21:35.505Z,38.22
2022-08-11T04:27:07.230Z,38.38
2022-08-11T04:32:33.097Z,38.28
2022-08-11T04:38:08.675Z,38.31
2022-08-11T04:44:02.050Z,38.55
2022-08-11T04:49:44.972Z,38.49
2022-08-11T04:55:27.487Z,38.67
2022-08-11T05:00:57.952Z,38.77
2022-08-11T05:06:24.667Z,38.73
2022-08-11T05:11:50.568Z,38.75
2022-08-11T05:17:33.663Z,38.97
2022-08-11T05:22:55.201Z,39.07
2022-08-11T05:28:28.549Z,39.23
2022-08-11T05:34:03.489Z,39.62
2022-08-11T05:39:36.203Z,38.75
2022-08-11T05:44:57.915Z,39.14
2022-08-11T05:50:18.488Z,39.14
2022-08-11T05:56:02.970Z,39.28
2022-08-11T06:01:06.263Z,38.92
2022-08-11T06:06:10.077Z,38.37
2022-08-11T06:11:12.580Z,38.87
2022-08-11T06:16:21.055Z,38.98
2022-08-11T06:21:23.038Z,38.12
2022-08-11T06:26:25.422Z,39.92
2022-08-11T06:31:28.641Z,40.12
2022-08-11T06:36:47.262Z,38.03
2022-08-11T06:41:53.579Z,39.16
2022-08-11T06:47:00.933Z,37.15
2022-08-11T06:52:33.988Z,36.49
2022-08-11T06:57:48.640Z,36.00
2022-08-11T07:03:00.682Z,37.40
2022-08-11T07:08:49.549Z,36.25
2022-08-11T07:14:13.098Z,35.83
2022-08-11T07:19:38.903Z,35.25
2022-08-11T07:25:04.782Z,35.31
2022-08-11T07:30:09.896Z,34.79
2022-08-11T07:35:13.669Z,34.47
2022-08-11T07:40:26.376Z,34.53
2022-08-11T07:45:47.056Z,34.11
2022-08-11T07:51:07.864Z,33.81
2022-08-11T07:56:10.099Z,33.38
2022-08-11T08:01:41.988Z,33.23
2022-08-11T08:07:03.089Z,32.89
2022-08-11T08:12:24.421Z,32.74
2022-08-11T08:17:45.289Z,32.19
2022-08-11T08:23:08.432Z,31.96
2022-08-11T08:28:14.039Z,31.96
2022-08-11T08:33:27.240Z,31.08
2022-08-11T08:38:29.241Z,31.54
2022-08-11T08:43:32.661Z,29.63
2022-08-11T08:48:51.261Z,29.76
2022-08-11T08:54:01.567Z,29.67
2022-08-11T08:59:04.561Z,29.99
2022-08-11T09:04:12.255Z,29.26
2022-08-11T09:09:16.851Z,28.36
2022-08-11T09:14:51.650Z,29.13
2022-08-11T09:20:21.181Z,27.45
2022-08-11T09:25:45.267Z,27.81
2022-08-11T09:30:53.581Z,26.34
2022-08-11T09:35:55.615Z,25.67
2022-08-11T09:40:58.053Z,26.04
2022-08-11T09:46:00.941Z,24.12
2022-08-11T09:51:03.034Z,24.09
2022-08-11T09:56:33.884Z,23.27
2022-08-11T10:01:47.329Z,23.73
2022-08-11T10:07:05.405Z,23.17
2022-08-11T10:12:12.058Z,22.64
2022-08-11T10:17:15.987Z,23.42
2022-08-11T10:22:51.501Z,23.57
2022-08-11T10:28:28.982Z,23.01
2022-08-11T10:33:42.855Z,22.99
2022-08-11T10:38:52.454Z,20.10
2022-08-11T10:44:02.403Z,20.76
2022-08-11T10:49:05.334Z,21.34
2022-08-11T10:54:25.340Z,20.34
2022-08-11T10:59:30.250Z,19.37
2022-08-11T11:04:58.265Z,18.69
2022-08-11T11:10:04.024Z,19.41
2022-08-11T11:15:25.385Z,17.44
2022-08-11T11:20:40.776Z,17.10
2022-08-11T11:26:14.369Z,17.07
2022-08-11T11:31:51.565Z,16.85
2022-08-11T11:36:58.436Z,16.70
2022-08-11T11:42:04.175Z,17.74
2022-08-11T11:47:06.755Z,17.22
2022-08-11T11:52:13.529Z,17.46
2022-08-11T11:57:35.279Z,17.54
2022-08-11T12:02:37.777Z,16.69
2022-08-11T12:08:12.444Z,17.02
2022-08-11T12:13:36.002Z,17.71
2022-08-11T12:18:39.727Z,17.55
2022-08-11T12:24:04.454Z,17.54
2022-08-11T12:29:09.506Z,17.28
2022-08-11T12:34:13.781Z,18.61
2022-08-11T12:40:17.080Z,18.57
2022-08-11T12:45:24.862Z,17.58
2022-08-11T12:50:50.062Z,17.42
2022-08-11T12:56:12.138Z,17.47
2022-08-11T13:01:32.700Z,17.40
2022-08-11T13:06:34.446Z,17.50
2022-08-11T13:11:57.644Z,17.45
2022-08-11T13:17:19.201Z,17.06
2022-08-11T13:22:24.286Z,17.65
2022-08-11T13:27:26.579Z,17.44
2022-08-11T13:32:29.611Z,18.03
2022-08-11T13:38:19.131Z,18.15
2022-08-11T13:42:53.880Z,18.06
2022-08-11T13:47:57.311Z,18.51
2022-08-11T13:52:58.892Z,18.88
2022-08-11T13:58:09.172Z,18.83
2022-08-11T14:03:26.074Z,18.42
2022-08-11T14:08:49.290Z,18.84
2022-08-11T14:13:52.306Z,18.55
2022-08-11T14:18:57.445Z,19.00
2022-08-11T14:24:01.471Z,19.08
2022-08-11T14:29:08.181Z,19.26
2022-08-11T14:34:12.441Z,19.40
2022-08-11T14:39:18.486Z,19.44
2022-08-11T14:44:39.589Z,19.64
2022-08-11T14:49:56.110Z,19.67
2022-08-11T14:55:23.496Z,20.03
2022-08-11T15:00:25.804Z,19.93
2022-08-11T15:05:27.905Z,19.29
2022-08-11T15:10:29.978Z,20.26
2022-08-11T15:16:02.549Z,20.34
2022-08-11T15:21:26.017Z,20.55
2022-08-11T15:27:00.590Z,20.46
2022-08-11T15:32:20.361Z,20.28
2022-08-11T15:37:27.842Z,20.70
2022-08-11T15:42:49.407Z,20.67
2022-08-11T15:48:06.007Z,20.50
2022-08-11T15:53:25.603Z,20.95
2022-08-11T15:59:40.578Z,20.89
2022-08-11T16:04:24.823Z,21.50
2022-08-11T16:09:28.400Z,21.22
2022-08-11T16:14:59.208Z,21.57
2022-08-11T16:20:03.096Z,21.40
2022-08-11T16:27:02.835Z,21.38
2022-08-11T16:30:43.790Z,21.18
2022-08-11T16:36:05.130Z,21.96
2022-08-11T16:41:12.314Z,22.02
2022-08-11T16:46:37.851Z,22.18
2022-08-11T16:51:39.336Z,21.71
2022-08-11T16:56:48.014Z,22.15
2022-08-11T17:01:53.823Z,21.63
2022-08-11T17:07:23.408Z,21.79
2022-08-11T17:12:57.809Z,21.83
2022-08-11T17:18:02.543Z,21.89
2022-08-11T17:23:24.123Z,21.38
2022-08-11T17:28:26.080Z,21.45
2022-08-11T17:33:47.878Z,22.11
2022-08-11T17:38:50.706Z,22.27
2022-08-11T17:44:13.562Z,22.08
2022-08-11T17:49:16.306Z,22.07
2022-08-11T17:54:37.481Z,21.99
2022-08-11T17:59:53.734Z,22.21
2022-08-11T18:04:57.526Z,22.47
2022-08-11T18:10:19.922Z,22.46
2022-08-11T18:15:39.771Z,22.26
2022-08-11T18:21:10.550Z,22.51
2022-08-11T18:26:31.364Z,22.97
2022-08-11T18:31:53.790Z,22.92
2022-08-11T18:37:22.882Z,23.40
2022-08-11T18:42:46.438Z,23.36
2022-08-11T18:48:11.614Z,24.10
2022-08-11T18:53:33.773Z,23.84
2022-08-11T18:58:55.812Z,24.03
2022-08-11T19:04:19.119Z,23.91
2022-08-11T19:09:39.693Z,23.88
2022-08-11T19:15:01.151Z,24.16
2022-08-11T19:20:24.522Z,24.58
2022-08-11T19:25:45.911Z,24.67
2022-08-11T19:31:06.116Z,24.92
2022-08-11T19:36:27.314Z,25.58
2022-08-11T19:41:56.675Z,25.39
2022-08-11T19:47:19.317Z,25.91
2022-08-11T19:52:39.797Z,26.00
2022-08-11T19:58:01.203Z,25.98
2022-08-11T20:03:24.342Z,26.01
2022-08-11T20:08:45.754Z,26.87
2022-08-11T20:14:09.954Z,26.65
2022-08-11T20:19:54.817Z,27.47
2022-08-11T20:25:14.662Z,28.22
2022-08-11T20:30:35.262Z,28.45
2022-08-11T20:35:57.676Z,28.67
2022-08-11T20:41:20.031Z,28.36
2022-08-11T20:46:42.066Z,29.09
2022-08-11T20:52:06.299Z,29.13
2022-08-11T20:57:59.159Z,29.13
2022-08-11T21:03:10.588Z,28.95
2022-08-11T21:08:34.107Z,29.33
2022-08-11T21:13:59.051Z,29.30
2022-08-11T21:20:06.585Z,29.13
2022-08-11T21:25:08.587Z,30.48
2022-08-11T21:30:29.012Z,30.05
2022-08-11T21:35:51.324Z,29.79
2022-08-11T21:41:12.789Z,30.40
2022-08-11T21:46:33.809Z,30.26
2022-08-11T21:51:56.168Z,30.01
2022-08-11T21:57:17.006Z,30.53
2022-08-11T22:02:38.238Z,30.36
2022-08-11T22:07:59.016Z,30.89
2022-08-11T22:13:19.088Z,30.68
2022-08-11T22:18:40.418Z,30.80
2022-08-11T22:24:02.052Z,30.99
2022-08-11T22:29:38.182Z,31.12
2022-08-11T22:35:02.763Z,31.20
2022-08-11T22:40:23.010Z,31.52
2022-08-11T22:45:43.220Z,31.78
2022-08-11T22:51:03.982Z,31.53
2022-08-11T22:56:32.983Z,32.05
2022-08-11T23:01:55.423Z,31.85
2022-08-11T23:07:50.404Z,31.79
2022-08-11T23:13:01.077Z,31.73
2022-08-11T23:18:21.936Z,31.76
2022-08-11T23:23:42.378Z,32.26
2022-08-11T23:29:05.836Z,31.98
2022-08-11T23:35:02.981Z,32.02
2022-08-11T23:40:10.709Z,31.92
2022-08-11T23:45:31.499Z,32.25
2022-08-11T23:50:54.166Z,32.33
2022-08-11T23:56:14.256Z,32.50
